Time;durP1;ratioP1;P1;durP2;ratioP2;P2;SDS_P1;SDS_P2;PMS_P1;PMS_P2;Temp;Humidity;BMP_temperature;BMP_pressure;BME280_temperature;BME280_humidity;BME280_pressure;Samples;Min_cycle;Max_cycle;Signal;HPM_P1;HPM_P2
2023/09/14 00:01:32;;;;;;;;;;;;;;;19.72;100.00;100279.34;180252;1259;44779;-57
2023/09/14 00:05:43;;;;;;;;;;;;;;;19.77;100.00;100281.81;180363;1260;45865;-59
2023/09/14 00:09:48;;;;;;;;;;;;;;;19.85;100.00;100283.01;180395;1259;43329;-59
2023/09/14 00:13:54;;;;;;;;;;;;;;;19.94;100.00;100285.61;180433;1259;58448;-59
2023/09/14 00:17:57;;;;;;;;;;;;;;;20.04;100.00;100288.77;180505;1259;44454;-59
2023/09/14 00:22:36;;;;;;;;;;;;;;;20.13;100.00;100289.46;180520;1259;43724;-59
2023/09/14 00:26:39;;;;;;;;;;;;;;;20.13;100.00;100287.84;180517;1259;45650;-59
2023/09/14 00:30:51;;;;;;;;;;;;;;;20.24;100.00;100291.41;180549;1259;43320;-59
2023/09/14 00:34:55;;;;;;;;;;;;;;;20.32;100.00;100294.20;180381;1260;58229;-59
2023/09/14 00:38:58;;;;;;;;;;;;;;;20.26;100.00;100290.86;180533;1259;45866;-59
2023/09/14 00:43:31;;;;;;;;;;;;;;;20.15;100.00;100297.14;180483;1259;43443;-59
2023/09/14 00:47:35;;;;;;;;;;;;;;;20.09;100.00;100298.19;180371;1260;43800;-59
2023/09/14 00:51:38;;;;;;;;;;;;;;;20.12;100.00;100298.25;180519;1259;45682;-59
2023/09/14 00:55:43;;;;;;;;;;;;;;;20.15;100.00;100294.13;180539;1259;58279;-59
2023/09/14 00:59:47;;;;;;;;;;;;;;;20.19;100.00;100297.80;180489;1259;45651;-59
2023/09/14 01:03:52;;;;;;;;;;;;;;;20.15;100.00;100300.83;180529;1259;45814;-59
2023/09/14 01:08:01;;;;;;;;;;;;;;;20.06;100.00;100302.23;180447;1260;44779;-59
2023/09/14 01:12:08;;;;;;;;;;;;;;;19.97;100.00;100305.16;180524;1259;45756;-59
2023/09/14 01:16:21;;;;;;;;;;;;;;;20.00;100.00;100312.67;180435;1260;58373;-59
2023/09/14 01:20:44;;;;;;;;;;;;;;;20.03;100.00;100317.20;180481;1260;45734;-59
2023/09/14 01:24:50;;;;;;;;;;;;;;;20.04;100.00;100316.67;180482;1259;45727;-59
2023/09/14 01:28:54;;;;;;;;;;;;;;;20.05;100.00;100316.61;180588;1259;44653;-60
2023/09/14 01:32:58;;;;;;;;;;;;;;;20.06;100.00;100308.89;180528;1259;43322;-60
2023/09/14 01:37:35;;;;;;;;;;;;;;;20.05;100.00;100304.64;180466;1259;57393;-59
2023/09/14 01:41:39;;;;;;;;;;;;;;;20.09;100.00;100307.91;180330;1260;43431;-60
2023/09/14 01:45:44;;;;;;;;;;;;;;;20.21;100.00;100305.26;180540;1259;44655;-60
2023/09/14 01:49:49;;;;;;;;;;;;;;;20.33;100.00;100305.82;180453;1259;45792;-60
2023/09/14 01:53:52;;;;;;;;;;;;;;;20.33;100.00;100308.52;180460;1259;45772;-59
2023/09/14 01:57:56;;;;;;;;;;;;;;;20.14;100.00;100316.05;180494;1259;58219;-60
2023/09/14 02:02:06;;;;;;;;;;;;;;;20.01;100.00;100312.59;180510;1260;45705;-60
2023/09/14 02:06:13;;;;;;;;;;;;;;;20.03;100.00;100313.75;180509;1259;220252;-60
2023/09/14 02:10:23;;;;;;;;;;;;;;;20.00;100.00;100319.52;180551;1259;45727;-60
2023/09/14 02:14:26;;;;;;;;;;;;;;;19.87;100.00;100317.05;180489;1259;43333;-59
2023/09/14 02:18:29;;;;;;;;;;;;;;;19.80;100.00;100316.95;180480;1259;58228;-59
2023/09/14 02:22:39;;;;;;;;;;;;;;;19.79;100.00;100317.72;180476;1259;45887;-60
2023/09/14 02:26:42;;;;;;;;;;;;;;;19.84;100.00;100320.11;180590;1259;43671;-59
2023/09/14 02:30:47;;;;;;;;;;;;;;;19.93;100.00;100320.20;180453;1259;45785;-60
2023/09/14 02:34:51;;;;;;;;;;;;;;;19.96;100.00;100322.48;180421;1259;44574;-59
2023/09/14 02:38:54;;;;;;;;;;;;;;;19.96;100.00;100330.08;180540;1259;58988;-59
2023/09/14 02:43:01;;;;;;;;;;;;;;;19.76;100.00;100336.73;180225;1260;85715;-87
2023/09/14 02:47:04;;;;;;;;;;;;;;;19.64;100.00;100331.56;179450;1259;44498;-86
2023/09/14 02:51:07;;;;;;;;;;;;;;;19.67;100.00;100327.15;179470;1259;43774;-86
2023/09/14 02:55:10;;;;;;;;;;;;;;;19.76;100.00;100328.94;178616;1259;45673;-86
2023/09/14 02:59:17;;;;;;;;;;;;;;;19.74;100.00;100326.75;178624;1259;57431;-86
2023/09/14 03:03:20;;;;;;;;;;;;;;;19.69;100.00;100336.85;178136;1259;45926;-89
2023/09/14 03:12:29;;;;;;;;;;;;;;;19.46;100.00;100365.05;179625;1264;44397;-91
2023/09/14 03:21:34;;;;;;;;;;;;;;;19.03;100.00;100384.00;180091;1261;57723;-58
2023/09/14 03:25:38;;;;;;;;;;;;;;;18.87;100.00;100394.59;180078;1264;43431;-58
2023/09/14 03:29:48;;;;;;;;;;;;;;;18.77;100.00;100400.38;180070;1262;43324;-58
2023/09/14 03:33:54;;;;;;;;;;;;;;;18.63;100.00;100405.02;180081;1262;45750;-58
2023/09/14 03:38:00;;;;;;;;;;;;;;;18.52;100.00;100408.82;180120;1262;43540;-58
2023/09/14 03:42:04;;;;;;;;;;;;;;;18.48;100.00;100416.40;180066;1262;59054;-58
2023/09/14 03:46:08;;;;;;;;;;;;;;;18.41;100.00;100418.25;180053;1262;44104;-57
2023/09/14 03:50:26;;;;;;;;;;;;;;;18.33;100.00;100423.42;179828;1262;43666;-58
2023/09/14 03:54:30;;;;;;;;;;;;;;;18.25;100.00;100429.05;179972;1264;43482;-58
2023/09/14 03:58:33;;;;;;;;;;;;;;;18.22;100.00;100446.31;179941;1262;43327;-58
2023/09/14 04:02:37;;;;;;;;;;;;;;;18.00;100.00;100457.64;179862;1262;57900;-58
2023/09/14 04:06:41;;;;;;;;;;;;;;;17.72;100.00;100465.30;179649;1263;45975;-58
2023/09/14 04:10:44;;;;;;;;;;;;;;;17.45;100.00;100479.02;179784;1262;43417;-63
2023/09/14 04:14:47;;;;;;;;;;;;;;;17.17;100.00;100488.76;180293;1262;45807;-58
2023/09/14 04:18:50;;;;;;;;;;;;;;;16.97;100.00;100504.27;180144;1262;45807;-58
2023/09/14 04:22:53;;;;;;;;;;;;;;;16.82;100.00;100510.38;179781;1262;58559;-59
2023/09/14 04:26:57;;;;;;;;;;;;;;;16.62;100.00;100518.14;180031;1262;43416;-58
2023/09/14 04:31:08;;;;;;;;;;;;;;;16.56;100.00;100523.80;180043;1263;45847;-58
2023/09/14 04:35:12;;;;;;;;;;;;;;;16.52;100.00;100519.13;180246;1258;45799;-57
2023/09/14 04:39:16;;;;;;;;;;;;;;;16.53;100.00;100523.40;180391;1259;43277;-57
2023/09/14 04:43:22;;;;;;;;;;;;;;;16.50;100.00;100525.95;180205;1260;57313;-57
2023/09/14 04:47:27;;;;;;;;;;;;;;;16.50;100.00;100530.24;180297;1263;45702;-57
2023/09/14 04:51:31;;;;;;;;;;;;;;;16.59;100.00;100536.20;180319;1260;43285;-56
2023/09/14 04:55:39;;;;;;;;;;;;;;;16.61;100.00;100539.85;180413;1259;44281;-58
2023/09/14 04:59:42;;;;;;;;;;;;;;;16.65;100.00;100543.03;180721;1260;43699;-57
2023/09/14 05:03:46;;;;;;;;;;;;;;;16.69;100.00;100549.23;180618;1260;58469;-57
2023/09/14 05:07:49;;;;;;;;;;;;;;;16.75;100.00;100552.41;180462;1260;44789;-56
2023/09/14 05:11:54;;;;;;;;;;;;;;;16.81;100.00;100554.10;180443;1260;43338;-56
2023/09/14 05:15:58;;;;;;;;;;;;;;;16.91;100.00;100557.79;180347;1260;44771;-57
2023/09/14 05:20:28;;;;;;;;;;;;;;;17.01;100.00;100558.73;180566;1260;45759;-56
2023/09/14 05:24:31;;;;;;;;;;;;;;;17.08;100.00;100558.30;180422;1260;59106;-56
2023/09/14 05:28:34;;;;;;;;;;;;;;;17.14;100.00;100560.98;180577;1260;43589;-56
2023/09/14 05:32:39;;;;;;;;;;;;;;;17.19;100.00;100568.15;180439;1260;45651;-56
2023/09/14 05:36:43;;;;;;;;;;;;;;;17.23;100.00;100573.64;180452;1260;45762;-56
2023/09/14 05:40:50;;;;;;;;;;;;;;;17.23;100.00;100579.56;180604;1260;44444;-56
2023/09/14 05:44:53;;;;;;;;;;;;;;;17.28;100.00;100583.34;180514;1260;58013;-56
2023/09/14 05:48:57;;;;;;;;;;;;;;;17.30;100.00;100588.63;180484;1260;43534;-57
2023/09/14 05:53:02;;;;;;;;;;;;;;;17.36;100.00;100585.75;180563;1260;44982;-57
2023/09/14 05:57:06;;;;;;;;;;;;;;;17.39;100.00;100587.40;180455;1261;43567;-57
2023/09/14 06:01:09;;;;;;;;;;;;;;;17.41;100.00;100591.83;180497;1260;43521;-56
2023/09/14 06:15:08;;;;;;;;;;;;;;;17.39;100.00;100601.73;177393;1262;43329;-60
2023/09/14 06:19:12;;;;;;;;;;;;;;;17.42;100.00;100602.30;180207;1262;43306;-61
2023/09/14 06:23:15;;;;;;;;;;;;;;;17.44;100.00;100611.79;180272;1262;45706;-61
2023/09/14 06:27:18;;;;;;;;;;;;;;;17.37;100.00;100619.63;180296;1261;57160;-60
2023/09/14 06:31:22;;;;;;;;;;;;;;;17.37;100.00;100624.17;180356;1262;43330;-60
2023/09/14 06:35:26;;;;;;;;;;;;;;;17.37;100.00;100632.88;180259;1262;43444;-60
2023/09/14 06:39:54;;;;;;;;;;;;;;;17.36;100.00;100637.32;180314;1262;43296;-59
2023/09/14 06:43:58;;;;;;;;;;;;;;;17.37;100.00;100639.51;180259;1262;43274;-59
2023/09/14 06:48:01;;;;;;;;;;;;;;;17.36;100.00;100641.08;180322;1262;56996;-59
2023/09/14 06:52:38;;;;;;;;;;;;;;;17.42;100.00;100643.36;180220;1262;43296;-59
2023/09/14 06:56:41;;;;;;;;;;;;;;;17.45;100.00;100646.02;180285;1262;44912;-60
2023/09/14 07:00:45;;;;;;;;;;;;;;;17.53;100.00;100648.80;180310;1262;44689;-61
2023/09/14 07:04:48;;;;;;;;;;;;;;;17.53;100.00;100650.05;180102;1262;43386;-59
2023/09/14 07:33:57;;;;;;;;;;;;;;;17.57;100.00;100683.58;180139;1265;57819;-56
2023/09/14 07:38:09;;;;;;;;;;;;;;;17.60;100.00;100690.52;180169;1266;44303;-55
2023/09/14 07:42:39;;;;;;;;;;;;;;;17.69;100.00;100692.50;180083;1266;43545;-58
2023/09/14 07:46:43;;;;;;;;;;;;;;;17.62;100.00;100698.96;180042;1266;43417;-56
2023/09/14 07:50:52;;;;;;;;;;;;;;;17.63;100.00;100703.56;180014;1266;45787;-56
2023/09/14 07:54:56;;;;;;;;;;;;;;;17.67;100.00;100707.96;180059;1266;58229;-57
2023/09/14 08:03:52;;;;;;;;;;;;;;;17.82;100.00;100713.77;179994;1265;45719;-58
2023/09/14 08:07:56;;;;;;;;;;;;;;;17.77;100.00;100719.86;179958;1267;43809;-57
2023/09/14 08:11:59;;;;;;;;;;;;;;;17.81;100.00;100718.38;179934;1265;43279;-58
2023/09/14 08:16:04;;;;;;;;;;;;;;;17.80;100.00;100721.13;180148;1267;58211;-57
2023/09/14 08:20:10;;;;;;;;;;;;;;;17.81;100.00;100724.55;180027;1266;43524;-57
2023/09/14 08:24:15;;;;;;;;;;;;;;;17.86;100.00;100726.59;180067;1265;44331;-58
2023/09/14 08:28:21;;;;;;;;;;;;;;;17.95;100.00;100735.16;180086;1265;45989;-58
2023/09/14 08:32:58;;;;;;;;;;;;;;;18.00;100.00;100734.52;179814;1267;43544;-57
2023/09/14 08:37:03;;;;;;;;;;;;;;;17.84;100.00;100739.53;180111;1266;58659;-57
2023/09/14 08:41:17;;;;;;;;;;;;;;;17.77;100.00;100740.95;179989;1266;43550;-57
2023/09/14 08:45:26;;;;;;;;;;;;;;;17.61;100.00;100742.63;179848;1265;43791;-58
2023/09/14 08:54:27;;;;;;;;;;;;;;;17.42;100.00;100751.65;179951;1266;43552;-56
2023/09/14 08:58:38;;;;;;;;;;;;;;;17.36;100.00;100754.37;180114;1265;58036;-58
2023/09/14 09:02:47;;;;;;;;;;;;;;;17.44;100.00;100756.73;179954;1267;44532;-58
2023/09/14 09:06:54;;;;;;;;;;;;;;;17.47;100.00;100757.02;179826;1265;43714;-58
2023/09/14 09:11:00;;;;;;;;;;;;;;;17.51;100.00;100756.03;179922;1265;43315;-58
2023/09/14 09:15:03;;;;;;;;;;;;;;;17.65;100.00;100758.36;180007;1266;43269;-57
2023/09/14 09:19:15;;;;;;;;;;;;;;;17.81;100.00;100761.39;180111;1266;58060;-58
2023/09/14 09:23:36;;;;;;;;;;;;;;;17.96;100.00;100761.75;179665;1262;83472;-90
2023/09/14 09:27:40;;;;;;;;;;;;;;;18.12;100.00;100758.52;178005;1262;45925;-90
2023/09/14 09:31:47;;;;;;;;;;;;;;;18.20;100.00;100757.30;179329;1262;43780;-89
2023/09/14 09:35:51;;;;;;;;;;;;;;;18.30;100.00;100756.27;177957;1260;45926;-89
2023/09/14 09:39:55;;;;;;;;;;;;;;;18.47;100.00;100755.30;177755;1259;59101;-89
2023/09/14 09:43:58;;;;;;;;;;;;;;;18.66;100.00;100757.27;177526;1260;45925;-89
2023/09/14 09:48:02;;;;;;;;;;;;;;;18.77;100.00;100752.73;177469;1259;45840;-88
2023/09/14 09:52:09;;;;;;;;;;;;;;;18.88;100.00;100753.98;177597;1259;45844;-89
2023/09/14 09:56:19;;;;;;;;;;;;;;;19.03;100.00;100751.33;177734;1263;45864;-89
2023/09/14 10:00:27;;;;;;;;;;;;;;;19.16;100.00;100750.02;177707;1260;57788;-89
2023/09/14 10:04:30;;;;;;;;;;;;;;;19.21;100.00;100751.84;177654;1263;45826;-89
2023/09/14 10:56:57;;;;;;;;;;;;;;;19.73;100.00;100744.62;180441;1260;44026;-57
2023/09/14 11:01:09;;;;;;;;;;;;;;;20.05;100.00;100744.24;180404;1262;43942;-58
2023/09/14 11:05:48;;;;;;;;;;;;;;;20.01;100.00;100744.16;180490;1262;45804;-58
2023/09/14 11:10:03;;;;;;;;;;;;;;;19.92;100.00;100744.58;180444;1262;43327;-58
2023/09/14 11:14:09;;;;;;;;;;;;;;;19.73;100.00;100742.81;180355;1261;58311;-59
2023/09/14 11:18:17;;;;;;;;;;;;;;;19.38;100.00;100749.80;180496;1260;43397;-58
2023/09/14 11:22:43;;;;;;;;;;;;;;;19.26;100.00;100754.86;180322;1262;45126;-58
2023/09/14 11:26:50;;;;;;;;;;;;;;;19.11;100.00;100756.17;180470;1262;43288;-57
2023/09/14 11:30:56;;;;;;;;;;;;;;;19.02;100.00;100756.08;180373;1259;45946;-58
2023/09/14 11:35:07;;;;;;;;;;;;;;;19.00;100.00;100754.69;180401;1261;57742;-59
2023/09/14 11:39:15;;;;;;;;;;;;;;;18.90;100.00;100757.95;180347;1262;43576;-58
2023/09/14 11:43:26;;;;;;;;;;;;;;;18.99;100.00;100755.10;180380;1260;43351;-59
2023/09/14 11:47:49;;;;;;;;;;;;;;;19.11;100.00;100754.85;180351;1262;44426;-58
2023/09/14 11:51:56;;;;;;;;;;;;;;;19.21;100.00;100758.48;180262;1262;43393;-58
2023/09/14 12:12:42;;;;;;;;;;;;;;;20.02;100.00;100757.38;181320;1263;579330;-57
2023/09/14 12:16:44;;;;;;;;;;;;;;;20.29;99.72;100766.48;184304;1244;58146;-56
2023/09/14 12:20:48;;;;;;;;;;;;;;;20.51;98.19;100764.44;184446;1245;45882;-56
2023/09/14 12:24:51;;;;;;;;;;;;;;;20.73;93.87;100762.73;185363;1237;45700;-57
2023/09/14 12:28:58;;;;;;;;;;;;;;;20.90;88.47;100764.52;185485;1236;44516;-57
2023/09/14 12:33:05;;;;;;;;;;;;;;;21.05;92.49;100766.38;185539;1238;45697;-57
2023/09/14 12:37:09;;;;;;;;;;;;;;;21.06;89.44;100770.93;185339;1237;58531;-57
2023/09/14 12:41:11;;;;;;;;;;;;;;;21.09;89.95;100767.86;186194;1231;45735;-57
2023/09/14 12:45:17;;;;;;;;;;;;;;;21.15;88.14;100766.48;186187;1230;45639;-58
2023/09/14 12:49:23;;;;;;;;;;;;;;;21.28;87.27;100765.48;186309;1231;43651;-57
2023/09/14 12:53:25;;;;;;;;;;;;;;;21.31;85.95;100763.90;186119;1230;44213;-57
2023/09/14 12:57:35;;;;;;;;;;;;;;;21.33;84.58;100764.90;186265;1230;58946;-57
2023/09/14 13:01:40;;;;;;;;;;;;;;;21.34;86.05;100761.90;186323;1230;45745;-57
2023/09/14 13:06:10;;;;;;;;;;;;;;;21.50;85.01;100755.08;186078;1231;45783;-56
2023/09/14 13:10:35;;;;;;;;;;;;;;;21.59;82.80;100754.36;186220;1232;45853;-55
2023/09/14 13:14:37;;;;;;;;;;;;;;;21.87;77.55;100751.83;186218;1232;43486;-57
2023/09/14 13:18:39;;;;;;;;;;;;;;;21.86;81.95;100748.93;186020;1231;58170;-61
2023/09/14 13:22:41;;;;;;;;;;;;;;;21.84;83.03;100751.16;186011;1230;43437;-61
2023/09/14 13:26:44;;;;;;;;;;;;;;;21.74;82.16;100754.50;185963;1232;43251;-61
2023/09/14 13:30:46;;;;;;;;;;;;;;;21.74;81.64;100752.20;185973;1232;43362;-60
2023/09/14 13:34:48;;;;;;;;;;;;;;;21.88;83.75;100751.23;185955;1231;45861;-61
2023/09/14 13:38:51;;;;;;;;;;;;;;;22.02;82.80;100746.92;185914;1231;58438;-62
2023/09/14 13:42:54;;;;;;;;;;;;;;;22.17;80.18;100745.67;185988;1231;43449;-62
2023/09/14 13:47:02;;;;;;;;;;;;;;;22.23;75.20;100742.57;185753;1231;43403;-62
2023/09/14 13:51:05;;;;;;;;;;;;;;;22.20;76.09;100739.79;185715;1231;45657;-61
2023/09/14 13:55:07;;;;;;;;;;;;;;;22.09;77.15;100735.08;185811;1232;43210;-61
2023/09/14 13:59:59;;;;;;;;;;;;;;;22.07;77.65;100736.41;185898;1231;57066;-61
2023/09/14 14:04:28;;;;;;;;;;;;;;;22.27;78.86;100731.07;185591;1232;45663;-63
2023/09/14 14:08:31;;;;;;;;;;;;;;;22.38;74.92;100729.89;185658;1233;43514;-62
2023/09/14 14:12:33;;;;;;;;;;;;;;;22.42;79.67;100722.14;185364;1232;45655;-64
2023/09/14 14:16:36;;;;;;;;;;;;;;;22.46;79.35;100724.64;185478;1233;43644;-64
2023/09/14 14:20:38;;;;;;;;;;;;;;;22.55;76.32;100725.83;185548;1233;57228;-64
2023/09/14 14:29:18;;;;;;;;;;;;;;;22.80;72.99;100722.66;185482;1232;43255;-64
2023/09/14 14:33:19;;;;;;;;;;;;;;;22.93;72.17;100720.80;185497;1232;44557;-64
2023/09/14 14:37:23;;;;;;;;;;;;;;;22.89;70.05;100718.64;185324;1234;43228;-64
2023/09/14 14:41:25;;;;;;;;;;;;;;;22.87;70.14;100717.29;185555;1232;59478;-64
2023/09/14 14:45:41;;;;;;;;;;;;;;;22.89;71.32;100720.10;185517;1233;43829;-64
2023/09/14 14:49:43;;;;;;;;;;;;;;;22.94;71.23;100725.02;185474;1233;43500;-64
2023/09/14 14:53:45;;;;;;;;;;;;;;;22.86;70.00;100728.29;185537;1232;45751;-64
2023/09/14 14:57:47;;;;;;;;;;;;;;;22.79;68.62;100726.98;185532;1232;45764;-64
2023/09/14 15:01:49;;;;;;;;;;;;;;;22.70;69.46;100725.36;185475;1233;58096;-63
2023/09/14 15:05:54;;;;;;;;;;;;;;;22.60;70.32;100727.54;185450;1233;45918;-64
2023/09/14 15:09:59;;;;;;;;;;;;;;;22.43;70.44;100727.10;185493;1232;43344;-61
2023/09/14 15:14:01;;;;;;;;;;;;;;;22.28;70.66;100729.83;185549;1233;44851;-61
2023/09/14 15:18:03;;;;;;;;;;;;;;;22.15;72.06;100728.27;185502;1234;43468;-61
2023/09/14 15:22:05;;;;;;;;;;;;;;;21.95;73.37;100729.67;185561;1233;57214;-61
2023/09/14 15:26:08;;;;;;;;;;;;;;;21.76;72.74;100734.04;185470;1234;44319;-61
2023/09/14 15:30:11;;;;;;;;;;;;;;;21.56;72.86;100733.95;185490;1234;44396;-61
2023/09/14 15:34:21;;;;;;;;;;;;;;;21.42;76.14;100727.66;185343;1234;44617;-61
2023/09/14 15:38:23;;;;;;;;;;;;;;;21.31;76.49;100732.28;185364;1234;45716;-61
2023/09/14 15:42:25;;;;;;;;;;;;;;;21.18;77.87;100740.86;185429;1233;58239;-61
2023/09/14 15:46:27;;;;;;;;;;;;;;;21.13;80.13;100743.65;185285;1235;45636;-61
2023/09/14 15:50:34;;;;;;;;;;;;;;;21.07;80.82;100741.75;185531;1233;45764;-61
2023/09/14 15:54:40;;;;;;;;;;;;;;;20.97;80.46;100750.48;185366;1236;43232;-61
2023/09/14 15:58:43;;;;;;;;;;;;;;;20.93;81.94;100753.84;185479;1233;45668;-61
2023/09/14 16:02:44;;;;;;;;;;;;;;;20.88;81.92;100757.55;185462;1233;58115;-61
2023/09/14 16:06:49;;;;;;;;;;;;;;;20.86;82.41;100763.00;185573;1233;44626;-61
2023/09/14 16:10:56;;;;;;;;;;;;;;;20.78;81.81;100767.67;185619;1233;45697;-63
2023/09/14 16:14:58;;;;;;;;;;;;;;;20.75;81.63;100768.46;185497;1235;45664;-64
2023/09/14 16:19:00;;;;;;;;;;;;;;;20.79;82.92;100771.52;185480;1232;45732;-64
2023/09/14 16:23:29;;;;;;;;;;;;;;;20.84;83.86;100773.89;185483;1233;58134;-64
2023/09/14 16:27:31;;;;;;;;;;;;;;;20.80;83.19;100775.73;185599;1234;43291;-63
2023/09/14 16:31:33;;;;;;;;;;;;;;;20.84;83.29;100775.15;185394;1233;43326;-64
2023/09/14 16:35:35;;;;;;;;;;;;;;;20.88;83.66;100778.33;185494;1232;44486;-63
2023/09/14 16:39:38;;;;;;;;;;;;;;;20.89;83.92;100778.21;185457;1234;43638;-64
2023/09/14 16:43:42;;;;;;;;;;;;;;;20.78;82.53;100775.14;185513;1236;59370;-64
2023/09/14 16:47:45;;;;;;;;;;;;;;;20.65;81.85;100773.04;185419;1234;43720;-64
2023/09/14 16:51:50;;;;;;;;;;;;;;;20.50;82.99;100778.31;185654;1232;43321;-59
2023/09/14 16:55:52;;;;;;;;;;;;;;;20.36;83.57;100773.84;185546;1233;43491;-63
2023/09/14 17:00:21;;;;;;;;;;;;;;;20.23;86.20;100774.97;185391;1234;43168;-62
2023/09/14 17:04:23;;;;;;;;;;;;;;;20.14;87.13;100776.23;185640;1233;57843;-62
2023/09/14 17:08:26;;;;;;;;;;;;;;;20.09;88.54;100774.03;185435;1233;43408;-63
2023/09/14 17:12:29;;;;;;;;;;;;;;;20.07;90.93;100775.40;185649;1234;44784;-62
2023/09/14 17:16:36;;;;;;;;;;;;;;;20.08;97.30;100778.33;185664;1234;44216;-63
2023/09/14 17:20:38;;;;;;;;;;;;;;;20.17;98.31;100782.53;185466;1233;44894;-63
2023/09/14 17:24:41;;;;;;;;;;;;;;;20.28;98.30;100785.03;185696;1233;58296;-63
2023/09/14 17:28:43;;;;;;;;;;;;;;;20.21;97.59;100787.58;185659;1232;44331;-63
2023/09/14 17:32:59;;;;;;;;;;;;;;;20.08;98.19;100786.89;185552;1232;44513;-64
2023/09/14 17:37:03;;;;;;;;;;;;;;;20.02;98.96;100791.95;185578;1232;45815;-64
2023/09/14 17:41:07;;;;;;;;;;;;;;;20.03;99.28;100795.04;185681;1234;43195;-64
2023/09/14 17:45:09;;;;;;;;;;;;;;;20.03;98.41;100794.48;185489;1232;58561;-63
2023/09/14 17:49:11;;;;;;;;;;;;;;;20.00;97.61;100794.32;185599;1232;43508;-63
2023/09/14 17:53:16;;;;;;;;;;;;;;;19.93;96.80;100793.84;185686;1232;45629;-63
2023/09/14 17:57:18;;;;;;;;;;;;;;;19.64;97.11;100792.77;185554;1233;46196;-63
2023/09/14 18:01:36;;;;;;;;;;;;;;;19.23;99.84;100799.51;185589;1232;45700;-63
2023/09/14 18:05:45;;;;;;;;;;;;;;;18.86;100.00;100805.23;185567;1233;58725;-63
2023/09/14 18:09:48;;;;;;;;;;;;;;;18.64;100.00;100809.03;185613;1234;43655;-63
2023/09/14 18:13:51;;;;;;;;;;;;;;;18.55;100.00;100810.50;185588;1232;45721;-63
2023/09/14 18:17:55;;;;;;;;;;;;;;;18.39;100.00;100816.70;185592;1233;44821;-63
2023/09/14 18:21:57;;;;;;;;;;;;;;;18.21;100.00;100820.25;185506;1232;43714;-63
2023/09/14 18:26:27;;;;;;;;;;;;;;;18.03;100.00;100825.33;185784;1233;58292;-64
2023/09/14 18:30:30;;;;;;;;;;;;;;;17.88;100.00;100825.11;185768;1232;45912;-62
2023/09/14 18:34:44;;;;;;;;;;;;;;;17.79;100.00;100825.52;185794;1233;43503;-63
2023/09/14 18:38:48;;;;;;;;;;;;;;;17.72;100.00;100829.45;185663;1232;44365;-62
2023/09/14 18:42:54;;;;;;;;;;;;;;;17.69;100.00;100834.24;185570;1232;43621;-63
2023/09/14 18:46:57;;;;;;;;;;;;;;;17.68;100.00;100836.59;185552;1234;58405;-64
2023/09/14 18:51:02;;;;;;;;;;;;;;;17.75;100.00;100838.48;185728;1233;43735;-63
2023/09/14 18:55:09;;;;;;;;;;;;;;;17.79;100.00;100838.88;185589;1236;44785;-62
2023/09/14 19:03:58;;;;;;;;;;;;;;;17.53;100.00;100852.14;185658;1234;44300;-63
2023/09/14 19:08:04;;;;;;;;;;;;;;;17.46;100.00;100854.63;185547;1236;58359;-62
2023/09/14 19:12:08;;;;;;;;;;;;;;;17.41;100.00;100853.86;185570;1234;43352;-63
2023/09/14 19:16:11;;;;;;;;;;;;;;;17.45;100.00;100853.11;185681;1233;43508;-63
2023/09/14 19:20:15;;;;;;;;;;;;;;;17.50;100.00;100852.05;185661;1236;45851;-62
2023/09/14 19:24:22;;;;;;;;;;;;;;;17.48;100.00;100857.64;185655;1232;44280;-62
2023/09/14 19:28:27;;;;;;;;;;;;;;;17.35;100.00;100859.32;185550;1234;58202;-64
2023/09/14 19:32:31;;;;;;;;;;;;;;;17.18;100.00;100858.48;185378;1236;43283;-62
2023/09/14 19:36:35;;;;;;;;;;;;;;;17.14;100.00;100863.42;185725;1233;43406;-62
2023/09/14 19:40:37;;;;;;;;;;;;;;;17.10;100.00;100866.36;185640;1236;45859;-64
2023/09/14 19:44:42;;;;;;;;;;;;;;;17.00;100.00;100868.77;185621;1234;44168;-63
2023/09/14 19:48:46;;;;;;;;;;;;;;;16.98;100.00;100865.70;185654;1234;57865;-62
2023/09/14 19:52:50;;;;;;;;;;;;;;;17.02;100.00;100871.45;185688;1235;43427;-61
2023/09/14 19:56:52;;;;;;;;;;;;;;;17.03;100.00;100869.38;185397;1234;43932;-62
2023/09/14 20:00:54;;;;;;;;;;;;;;;17.08;100.00;100869.92;185610;1234;44353;-63
2023/09/14 20:04:56;;;;;;;;;;;;;;;17.14;100.00;100876.88;185541;1234;45719;-62
2023/09/14 20:08:58;;;;;;;;;;;;;;;17.20;100.00;100876.39;185607;1234;57924;-63
2023/09/14 20:13:00;;;;;;;;;;;;;;;17.26;100.00;100877.77;185789;1234;43515;-62
2023/09/14 20:17:03;;;;;;;;;;;;;;;17.30;100.00;100877.42;185696;1235;44377;-61
2023/09/14 20:21:06;;;;;;;;;;;;;;;17.27;100.00;100876.78;185725;1232;45845;-61
2023/09/14 20:25:09;;;;;;;;;;;;;;;17.24;100.00;100873.33;185714;1234;43537;-61
2023/09/14 20:29:13;;;;;;;;;;;;;;;17.20;100.00;100876.45;185740;1233;61123;-61
2023/09/14 20:33:15;;;;;;;;;;;;;;;17.16;100.00;100877.39;185712;1234;45065;-61
2023/09/14 20:37:43;;;;;;;;;;;;;;;17.15;100.00;100875.52;185700;1235;44129;-62
2023/09/14 20:41:51;;;;;;;;;;;;;;;17.13;100.00;100877.48;185634;1232;44191;-62
2023/09/14 20:45:54;;;;;;;;;;;;;;;17.11;100.00;100876.48;185553;1235;45771;-61
2023/09/14 20:49:58;;;;;;;;;;;;;;;17.09;100.00;100877.70;185461;1236;58264;-63
2023/09/14 20:53:59;;;;;;;;;;;;;;;17.09;100.00;100879.90;185637;1234;43190;-62
2023/09/14 20:58:05;;;;;;;;;;;;;;;17.07;100.00;100876.97;185563;1233;43295;-64
2023/09/14 21:02:09;;;;;;;;;;;;;;;17.06;100.00;100878.06;185628;1235;45739;-63
2023/09/14 21:06:11;;;;;;;;;;;;;;;17.03;100.00;100880.70;185413;1233;44641;-62
2023/09/14 21:10:16;;;;;;;;;;;;;;;17.01;100.00;100883.52;185421;1236;56989;-63
2023/09/14 21:14:23;;;;;;;;;;;;;;;17.00;100.00;100886.27;185654;1233;44728;-62
2023/09/14 21:18:30;;;;;;;;;;;;;;;16.99;100.00;100883.17;185395;1235;43485;-62
2023/09/14 21:22:34;;;;;;;;;;;;;;;17.00;100.00;100886.35;185655;1233;45307;-62
2023/09/14 21:26:39;;;;;;;;;;;;;;;16.99;100.00;100886.36;185652;1232;45777;-62
2023/09/14 21:30:41;;;;;;;;;;;;;;;16.98;100.00;100887.71;185307;1233;58188;-62
2023/09/14 21:34:43;;;;;;;;;;;;;;;16.97;100.00;100883.15;185656;1233;45631;-63
2023/09/14 21:38:45;;;;;;;;;;;;;;;16.96;100.00;100883.98;185616;1236;44566;-62
2023/09/14 21:42:48;;;;;;;;;;;;;;;16.95;100.00;100884.02;185541;1232;44783;-62
2023/09/14 21:46:50;;;;;;;;;;;;;;;16.91;100.00;100885.73;185606;1234;45738;-62
2023/09/14 21:50:52;;;;;;;;;;;;;;;16.82;100.00;100885.14;185592;1232;56820;-62
2023/09/14 21:54:54;;;;;;;;;;;;;;;16.73;100.00;100887.30;185451;1233;46587;-62
2023/09/14 21:58:56;;;;;;;;;;;;;;;16.63;100.00;100887.35;185586;1235;44617;-63
2023/09/14 22:02:58;;;;;;;;;;;;;;;16.56;100.00;100889.52;185588;1235;43990;-62
2023/09/14 22:07:01;;;;;;;;;;;;;;;16.49;100.00;100884.48;185566;1234;43219;-63
2023/09/14 22:11:04;;;;;;;;;;;;;;;16.45;100.00;100887.04;185562;1236;57255;-62
2023/09/14 22:15:08;;;;;;;;;;;;;;;16.42;100.00;100886.58;185465;1235;43686;-62
2023/09/14 22:19:10;;;;;;;;;;;;;;;16.37;100.00;100882.35;185631;1234;45609;-62
2023/09/14 22:23:13;;;;;;;;;;;;;;;16.32;100.00;100883.77;185370;1233;43509;-62
2023/09/14 22:27:15;;;;;;;;;;;;;;;16.29;100.00;100884.91;185599;1234;45638;-62
2023/09/14 22:31:17;;;;;;;;;;;;;;;16.24;100.00;100883.45;185623;1233;58189;-63
2023/09/14 22:35:20;;;;;;;;;;;;;;;16.23;100.00;100888.95;185690;1234;43651;-62
2023/09/14 22:39:22;;;;;;;;;;;;;;;16.21;100.00;100891.63;185529;1233;43306;-63
2023/09/14 22:43:24;;;;;;;;;;;;;;;16.08;100.00;100892.14;185419;1233;43482;-62
2023/09/14 22:47:28;;;;;;;;;;;;;;;16.00;100.00;100890.91;185579;1234;43202;-62